Time,TemperatureF,DewpointF,PressureIn,WindDirection,WindDirectionDegrees,WindSpeedMPH,WindSpeedGustMPH,Humidity,HourlyPrecipIn,Conditions,Clouds,dailyrainin,SoftwareType,DateUTC
2013-03-29 00:02:00,34.3,30.3,30.23,SSE,159,8.3,10.9,85,0.00,,,0.00,CWS Microserver 1.4,2013-03-29 05:02:00,
2013-03-29 00:07:00,34.5,30.5,30.23,SSE,167,8.7,11.1,85,0.00,,,0.00,CWS Microserver 1.4,2013-03-29 05:07:00,
2013-03-29 00:17:00,34.3,30.4,30.23,SSE,159,9.8,10.8,85,0.00,,,0.00,CWS Microserver 1.4,2013-03-29 05:17:00,
2013-03-29 00:22:00,34.3,30.4,30.23,SSE,157,9.7,12.5,85,0.00,,,0.00,CWS Microserver 1.4,2013-03-29 05:22:00,
2013-03-29 00:27:00,34.7,30.7,30.23,South,170,6.1,13.8,85,0.00,,,0.00,CWS Microserver 1.4,2013-03-29 05:27:00,
2013-03-29 00:32:00,34.8,30.5,30.23,SSE,158,10.6,13.8,84,0.00,,,0.00,CWS Microserver 1.4,2013-03-29 05:32:00,
2013-03-29 00:37:00,34.7,30.6,30.23,SSE,161,7.2,13.6,84,0.00,,,0.00,CWS Microserver 1.4,2013-03-29 05:37:00,
2013-03-29 00:42:00,34.5,30.5,30.23,South,173,8.9,12.8,85,0.00,,,0.00,CWS Microserver 1.4,2013-03-29 05:42:00,
2013-03-29 00:47:00,34.7,30.6,30.23,South,170,7.7,11.2,84,0.00,,,0.00,CWS Microserver 1.4,2013-03-29 05:47:00,
2013-03-29 00:52:00,34.5,30.4,30.23,SSE,168,7.1,11.2,84,0.00,,,0.00,CWS Microserver 1.4,2013-03-29 05:52:00,
2013-03-29 01:02:00,34.7,30.7,30.23,South,169,9.8,12.4,85,0.00,,,0.00,CWS Microserver 1.4,2013-03-29 06:02:00,
2013-03-29 01:07:00,34.5,30.5,30.23,SSE,165,11.4,12.4,85,0.00,,,0.00,CWS Microserver 1.4,2013-03-29 06:07:00,
2013-03-29 01:12:00,34.5,30.4,30.23,South,171,8.8,14.2,84,0.00,,,0.00,CWS Microserver 1.4,2013-03-29 06:12:00,
2013-03-29 01:17:00,34.3,30.3,30.23,SSE,162,11.1,14.2,85,0.00,,,0.00,CWS Microserver 1.4,2013-03-29 06:17:00,
2013-03-29 01:22:00,34.5,30.4,30.23,SSE,153,8.3,13.3,84,0.00,,,0.00,CWS Microserver 1.4,2013-03-29 06:22:00,
2013-03-29 01:27:00,34.8,30.5,30.23,South,174,10.9,15.7,84,0.00,,,0.00,CWS Microserver 1.4,2013-03-29 06:27:00,
2013-03-29 01:37:00,34.7,30.4,30.23,SSE,163,10.2,15.1,84,0.00,,,0.00,CWS Microserver 1.4,2013-03-29 06:37:00,
2013-03-29 01:42:00,34.7,30.4,30.23,SSE,163,7.4,14.9,84,0.00,,,0.00,CWS Microserver 1.4,2013-03-29 06:42:00,
2013-03-29 01:47:00,34.3,30.2,30.23,South,170,9.9,14.9,84,0.00,,,0.00,CWS Microserver 1.4,2013-03-29 06:47:00,
2013-03-29 01:52:00,34.3,30.3,30.23,South,191,6.2,13.8,85,0.00,,,0.00,CWS Microserver 1.4,2013-03-29 06:52:00,
2013-03-29 01:57:00,34.1,30.1,30.23,SSE,165,6.1,13.8,85,0.00,,,0.00,CWS Microserver 1.4,2013-03-29 06:57:00,
2013-03-29 02:02:00,33.9,30.1,30.23,SSE,148,6.5,12.0,85,0.00,,,0.00,CWS Microserver 1.4,2013-03-29 07:02:00,
2013-03-29 02:07:00,33.8,30.0,30.23,South,169,6.8,12.0,85,0.00,,,0.00,CWS Microserver 1.4,2013-03-29 07:07:00,
2013-03-29 02:12:00,33.6,29.9,30.22,SSE,164,6.2,11.6,86,0.00,,,0.00,CWS Microserver 1.4,2013-03-29 07:12:00,
2013-03-29 02:17:00,33.4,29.9,30.22,South,183,7.7,11.1,86,0.00,,,0.00,CWS Microserver 1.4,2013-03-29 07:17:00,
2013-03-29 02:22:00,33.4,29.9,30.22,South,185,8.7,10.1,86,0.00,,,0.00,CWS Microserver 1.4,2013-03-29 07:22:00,
2013-03-29 02:27:00,33.4,30.0,30.22,SSE,160,7.0,11.3,87,0.00,,,0.00,CWS Microserver 1.4,2013-03-29 07:27:00,
2013-03-29 02:32:00,33.2,29.7,30.22,South,179,5.4,11.3,87,0.00,,,0.00,CWS Microserver 1.4,2013-03-29 07:32:00,
2013-03-29 02:37:00,33.2,29.7,30.23,South,179,4.6,9.4,87,0.00,,,0.00,CWS Microserver 1.4,2013-03-29 07:37:00,
2013-03-29 02:42:00,33.2,29.8,30.22,South,176,6.7,9.3,87,0.00,,,0.00,CWS Microserver 1.4,2013-03-29 07:42:00,
2013-03-29 02:47:00,33.4,30.0,30.22,South,189,7.0,8.9,87,0.00,,,0.00,CWS Microserver 1.4,2013-03-29 07:47:00,
2013-03-29 02:52:00,33.8,30.2,30.22,South,186,6.1,8.9,86,0.00,,,0.00,CWS Microserver 1.4,2013-03-29 07:52:00,
2013-03-29 02:57:00,33.6,29.9,30.22,South,173,6.1,8.9,86,0.00,,,0.00,CWS Microserver 1.4,2013-03-29 07:57:00,
2013-03-29 03:02:00,33.4,29.9,30.22,South,184,6.4,9.0,86,0.00,,,0.00,CWS Microserver 1.4,2013-03-29 08:02:00,
2013-03-29 03:12:00,33.9,30.1,30.22,SSE,161,6.2,10.1,85,0.00,,,0.00,CWS Microserver 1.4,2013-03-29 08:12:00,
2013-03-29 03:17:00,34.3,30.3,30.23,SSW,197,5.7,10.1,85,0.00,,,0.00,CWS Microserver 1.4,2013-03-29 08:17:00,
2013-03-29 03:22:00,34.5,30.3,30.23,South,189,5.9,9.4,84,0.00,,,0.00,CWS Microserver 1.4,2013-03-29 08:22:00,
2013-03-29 03:27:00,34.3,30.1,30.22,South,186,7.5,8.5,84,0.00,,,0.00,CWS Microserver 1.4,2013-03-29 08:27:00,
2013-03-29 03:32:00,34.3,30.1,30.22,South,173,8.1,9.3,84,0.00,,,0.00,CWS Microserver 1.4,2013-03-29 08:32:00,
2013-03-29 03:42:00,34.1,30.1,30.22,SSE,159,5.9,9.9,85,0.00,,,0.00,CWS Microserver 1.4,2013-03-29 08:42:00,
2013-03-29 03:47:00,33.8,30.0,30.22,SSE,150,5.1,8.1,85,0.00,,,0.00,CWS Microserver 1.4,2013-03-29 08:47:00,
2013-03-29 03:57:00,33.0,29.7,30.21,SSE,147,7.5,8.0,87,0.00,,,0.00,CWS Microserver 1.4,2013-03-29 08:57:00,
2013-03-29 04:02:00,33.0,29.7,30.22,SSE,161,5.9,8.0,87,0.00,,,0.00,CWS Microserver 1.4,2013-03-29 09:02:00,
2013-03-29 04:07:00,33.0,29.8,30.22,SSE,157,4.4,7.8,87,0.00,,,0.00,CWS Microserver 1.4,2013-03-29 09:07:00,
2013-03-29 04:12:00,33.0,29.9,30.21,SSE,165,5.7,6.9,88,0.00,,,0.00,CWS Microserver 1.4,2013-03-29 09:12:00,
2013-03-29 04:17:00,33.2,29.9,30.21,SSE,164,6.7,8.4,87,0.00,,,0.00,CWS Microserver 1.4,2013-03-29 09:17:00,
2013-03-29 04:22:00,33.6,30.1,30.21,SSE,161,8.0,9.6,86,0.00,,,0.00,CWS Microserver 1.4,2013-03-29 09:22:00,
2013-03-29 04:27:00,33.6,30.0,30.21,SSE,153,8.6,9.6,86,0.00,,,0.00,CWS Microserver 1.4,2013-03-29 09:27:00,
2013-03-29 04:32:00,33.2,29.8,30.21,SSE,156,6.4,9.1,87,0.00,,,0.00,CWS Microserver 1.4,2013-03-29 09:32:00,
2013-03-29 04:37:00,33.2,29.7,30.21,SSE,157,7.2,9.5,87,0.00,,,0.00,CWS Microserver 1.4,2013-03-29 09:37:00,
2013-03-29 04:42:00,33.0,29.6,30.21,SSE,166,8.5,9.5,87,0.00,,,0.00,CWS Microserver 1.4,2013-03-29 09:42:00,
2013-03-29 04:47:00,33.0,29.6,30.21,SSE,161,7.7,9.6,87,0.00,,,0.00,CWS Microserver 1.4,2013-03-29 09:47:00,
2013-03-29 04:52:00,33.0,29.6,30.21,SSE,156,6.6,10.7,87,0.00,,,0.00,CWS Microserver 1.4,2013-03-29 09:52:00,
2013-03-29 04:57:00,33.2,29.7,30.21,South,175,5.5,10.7,87,0.00,,,0.00,CWS Microserver 1.4,2013-03-29 09:57:00,
2013-03-29 05:02:00,33.2,29.6,30.21,SSE,156,5.9,9.8,86,0.00,,,0.00,CWS Microserver 1.4,2013-03-29 10:02:00,
2013-03-29 05:07:00,33.0,29.7,30.21,South,171,6.2,9.8,87,0.00,,,0.00,CWS Microserver 1.4,2013-03-29 10:07:00,
2013-03-29 05:12:00,33.2,29.7,30.21,South,172,5.7,8.9,87,0.00,,,0.00,CWS Microserver 1.4,2013-03-29 10:12:00,
2013-03-29 05:22:00,33.6,29.9,30.21,SSW,202,3.4,11.8,86,0.00,,,0.00,CWS Microserver 1.4,2013-03-29 10:22:00,
2013-03-29 05:27:00,33.6,29.9,30.21,SSE,165,6.8,10.4,86,0.00,,,0.00,CWS Microserver 1.4,2013-03-29 10:27:00,
2013-03-29 05:32:00,33.6,29.8,30.21,SSE,163,9.3,10.2,85,0.00,,,0.00,CWS Microserver 1.4,2013-03-29 10:32:00,
2013-03-29 05:37:00,33.6,29.9,30.21,SSE,156,7.0,11.1,86,0.00,,,0.00,CWS Microserver 1.4,2013-03-29 10:37:00,
2013-03-29 05:42:00,33.2,29.7,30.21,SSE,167,7.8,11.1,87,0.00,,,0.00,CWS Microserver 1.4,2013-03-29 10:42:00,
2013-03-29 05:47:00,33.4,29.9,30.21,SSE,165,7.9,9.7,86,0.00,,,0.00,CWS Microserver 1.4,2013-03-29 10:47:00,
2013-03-29 05:57:00,33.6,29.8,30.21,South,175,6.0,10.6,85,0.00,,,0.00,CWS Microserver 1.4,2013-03-29 10:57:00,
2013-03-29 06:07:00,33.6,29.8,30.21,SSE,159,8.6,10.2,85,0.00,,,0.00,CWS Microserver 1.4,2013-03-29 11:07:00,
2013-03-29 06:12:00,33.4,29.7,30.21,SSE,158,9.5,10.8,86,0.00,,,0.00,CWS Microserver 1.4,2013-03-29 11:12:00,
2013-03-29 06:17:00,33.4,29.6,30.21,SSE,159,8.9,10.8,85,0.00,,,0.00,CWS Microserver 1.4,2013-03-29 11:17:00,
2013-03-29 06:22:00,33.4,29.6,30.21,SSE,165,9.7,10.6,85,0.00,,,0.00,CWS Microserver 1.4,2013-03-29 11:22:00,
2013-03-29 06:27:00,33.6,29.7,30.21,SSE,166,8.7,10.7,85,0.00,,,0.00,CWS Microserver 1.4,2013-03-29 11:27:00,
2013-03-29 06:37:00,33.6,29.7,30.21,South,172,4.2,9.9,85,0.00,,,0.00,CWS Microserver 1.4,2013-03-29 11:37:00,
2013-03-29 06:42:00,33.6,29.7,30.21,SSE,160,6.5,9.9,85,0.00,,,0.00,CWS Microserver 1.4,2013-03-29 11:42:00,
2013-03-29 06:47:00,33.4,29.6,30.21,SSE,154,9.0,10.3,85,0.00,,,0.00,CWS Microserver 1.4,2013-03-29 11:47:00,
2013-03-29 06:52:00,33.4,29.6,30.21,SSE,159,8.3,10.3,85,0.00,,,0.00,CWS Microserver 1.4,2013-03-29 11:52:00,
2013-03-29 06:57:00,33.2,29.4,30.21,SSE,158,10.1,11.0,85,0.00,,,0.00,CWS Microserver 1.4,2013-03-29 11:57:00,
2013-03-29 07:07:00,33.4,29.6,30.21,SSE,165,7.7,11.6,85,0.00,,,0.00,CWS Microserver 1.4,2013-03-29 12:07:00,
2013-03-29 07:12:00,33.2,29.4,30.21,SSE,163,9.0,11.6,85,0.00,,,0.00,CWS Microserver 1.4,2013-03-29 12:12:00,
2013-03-29 07:17:00,33.4,29.5,30.21,SSE,152,9.7,12.4,85,0.00,,,0.00,CWS Microserver 1.4,2013-03-29 12:17:00,
2013-03-29 07:22:00,33.2,29.5,30.21,SSE,161,9.9,12.4,86,0.00,,,0.00,CWS Microserver 1.4,2013-03-29 12:22:00,
2013-03-29 07:32:00,33.4,29.5,30.21,SSE,158,7.4,12.2,85,0.00,,,0.00,CWS Microserver 1.4,2013-03-29 12:32:00,
2013-03-29 07:37:00,33.4,29.5,30.22,SSE,161,7.6,12.2,85,0.00,,,0.00,CWS Microserver 1.4,2013-03-29 12:37:00,
2013-03-29 07:42:00,33.4,29.5,30.22,SSE,165,7.3,10.2,85,0.00,,,0.00,CWS Microserver 1.4,2013-03-29 12:42:00,
2013-03-29 07:47:00,33.4,29.4,30.22,South,180,5.4,10.1,85,0.00,,,0.00,CWS Microserver 1.4,2013-03-29 12:47:00,
2013-03-29 07:52:00,33.6,29.7,30.22,SSE,157,2.7,10.1,85,0.00,,,0.00,CWS Microserver 1.4,2013-03-29 12:52:00,
2013-03-29 07:57:00,33.6,29.6,30.22,SSE,165,7.3,10.6,85,0.00,,,0.00,CWS Microserver 1.4,2013-03-29 12:57:00,
2013-03-29 08:02:00,33.6,29.6,30.22,SSE,168,9.1,11.9,85,0.00,,,0.00,CWS Microserver 1.4,2013-03-29 13:02:00,
2013-03-29 08:07:00,33.9,29.8,30.22,SSE,163,8.5,11.9,84,0.00,,,0.00,CWS Microserver 1.4,2013-03-29 13:07:00,
2013-03-29 08:12:00,33.9,29.7,30.22,SSE,158,8.9,11.0,84,0.00,,,0.00,CWS Microserver 1.4,2013-03-29 13:12:00,
2013-03-29 08:17:00,33.8,29.8,30.22,SSE,165,8.0,11.0,85,0.00,,,0.00,CWS Microserver 1.4,2013-03-29 13:17:00,
2013-03-29 08:22:00,33.9,29.9,30.22,South,178,9.4,10.6,85,0.00,,,0.00,CWS Microserver 1.4,2013-03-29 13:22:00,
2013-03-29 08:27:00,33.9,30.0,30.22,SSE,157,4.5,11.3,85,0.00,,,0.00,CWS Microserver 1.4,2013-03-29 13:27:00,
2013-03-29 08:32:00,34.1,30.1,30.22,SSE,166,9.3,11.3,85,0.00,,,0.00,CWS Microserver 1.4,2013-03-29 13:32:00,
2013-03-29 08:42:00,34.3,30.1,30.22,SSE,155,11.9,12.0,84,0.00,,,0.00,CWS Microserver 1.4,2013-03-29 13:42:00,
2013-03-29 08:47:00,34.1,30.0,30.22,SSE,163,8.9,12.6,84,0.00,,,0.00,CWS Microserver 1.4,2013-03-29 13:47:00,
2013-03-29 08:52:00,34.3,30.3,30.22,SSE,164,9.9,12.6,85,0.00,,,0.00,CWS Microserver 1.4,2013-03-29 13:52:00,
2013-03-29 09:02:00,34.5,30.4,30.22,SSE,158,8.1,10.9,84,0.00,,,0.00,CWS Microserver 1.4,2013-03-29 14:02:00,
2013-03-29 09:07:00,34.7,30.7,30.22,South,179,5.2,9.6,85,0.00,,,0.00,CWS Microserver 1.4,2013-03-29 14:07:00,
2013-03-29 09:12:00,34.8,30.7,30.22,SSE,163,7.5,10.3,84,0.00,,,0.00,CWS Microserver 1.4,2013-03-29 14:12:00,
2013-03-29 09:17:00,34.8,30.7,30.21,SSE,162,11.2,11.2,84,0.00,,,0.00,CWS Microserver 1.4,2013-03-29 14:17:00,
2013-03-29 09:22:00,35.2,30.9,30.21,South,170,7.5,11.2,84,0.00,,,0.00,CWS Microserver 1.4,2013-03-29 14:22:00,
2013-03-29 09:27:00,35.4,31.0,30.21,South,172,5.9,11.2,84,0.00,,,0.00,CWS Microserver 1.4,2013-03-29 14:27:00,
2013-03-29 09:32:00,35.7,31.2,30.22,South,189,7.6,10.8,83,0.00,,,0.00,CWS Microserver 1.4,2013-03-29 14:32:00,
2013-03-29 09:37:00,36.5,31.6,30.22,South,179,9.6,11.3,82,0.00,,,0.00,CWS Microserver 1.4,2013-03-29 14:37:00,
2013-03-29 09:42:00,36.8,31.7,30.22,South,188,9.3,11.3,81,0.00,,,0.00,CWS Microserver 1.4,2013-03-29 14:42:00,
2013-03-29 09:47:00,37.0,32.0,30.22,South,188,8.7,12.1,81,0.00,,,0.00,CWS Microserver 1.4,2013-03-29 14:47:00,
2013-03-29 09:57:00,38.3,32.8,30.21,SSW,193,8.6,12.1,80,0.00,,,0.00,CWS Microserver 1.4,2013-03-29 14:57:00,
2013-03-29 10:02:00,38.8,33.0,30.21,South,181,11.4,12.3,79,0.00,,,0.00,CWS Microserver 1.4,2013-03-29 15:02:00,
2013-03-29 10:07:00,39.3,33.3,30.21,SSW,197,8.9,13.1,78,0.00,,,0.00,CWS Microserver 1.4,2013-03-29 15:07:00,
2013-03-29 10:12:00,40.2,34.0,30.21,SSW,196,5.6,13.1,78,0.00,,,0.00,CWS Microserver 1.4,2013-03-29 15:12:00,
2013-03-29 10:17:00,41.0,34.1,30.21,SSW,196,8.1,11.5,76,0.00,,,0.00,CWS Microserver 1.4,2013-03-29 15:17:00,
2013-03-29 10:27:00,41.5,34.5,30.21,South,170,7.7,11.0,75,0.00,,,0.00,CWS Microserver 1.4,2013-03-29 15:27:00,
2013-03-29 10:37:00,42.4,34.9,30.21,South,179,6.6,10.9,74,0.00,,,0.00,CWS Microserver 1.4,2013-03-29 15:37:00,
2013-03-29 10:47:00,43.8,35.9,30.21,SSW,197,6.9,10.4,73,0.00,,,0.00,CWS Microserver 1.4,2013-03-29 15:47:00,
2013-03-29 10:52:00,44.4,36.3,30.21,South,173,8.5,11.6,73,0.00,,,0.00,CWS Microserver 1.4,2013-03-29 15:52:00,
2013-03-29 10:57:00,44.9,36.4,30.21,SSW,197,7.5,11.6,72,0.00,,,0.00,CWS Microserver 1.4,2013-03-29 15:57:00,
2013-03-29 11:02:00,44.7,36.7,30.21,SSW,201,8.3,12.3,73,0.00,,,0.00,CWS Microserver 1.4,2013-03-29 16:02:00,
2013-03-29 11:07:00,45.3,37.1,30.21,South,181,7.8,13.0,73,0.00,,,0.00,CWS Microserver 1.4,2013-03-29 16:07:00,
2013-03-29 11:12:00,46.0,37.5,30.21,SSW,197,6.9,13.0,72,0.00,,,0.00,CWS Microserver 1.4,2013-03-29 16:12:00,
2013-03-29 11:17:00,46.2,37.4,30.21,South,178,9.8,12.8,71,0.00,,,0.00,CWS Microserver 1.4,2013-03-29 16:17:00,
2013-03-29 11:27:00,46.7,37.5,30.21,South,183,10.2,13.7,70,0.00,,,0.00,CWS Microserver 1.4,2013-03-29 16:27:00,
2013-03-29 11:32:00,47.6,39.2,30.21,South,188,9.7,13.4,72,0.00,,,0.00,CWS Microserver 1.4,2013-03-29 16:32:00,
2013-03-29 11:37:00,47.4,38.2,30.21,SSW,200,11.9,15.0,70,0.00,,,0.00,CWS Microserver 1.4,2013-03-29 16:37:00,
2013-03-29 11:42:00,47.6,38.2,30.21,South,188,8.2,15.0,69,0.00,,,0.00,CWS Microserver 1.4,2013-03-29 16:42:00,
2013-03-29 11:47:00,48.0,39.0,30.20,South,178,10.5,15.6,70,0.00,,,0.00,CWS Microserver 1.4,2013-03-29 16:47:00,
2013-03-29 11:52:00,48.7,39.6,30.20,SSW,202,7.8,15.6,70,0.00,,,0.00,CWS Microserver 1.4,2013-03-29 16:52:00,
2013-03-29 11:57:00,49.1,39.5,30.20,South,180,8.1,14.5,69,0.00,,,0.00,CWS Microserver 1.4,2013-03-29 16:57:00,
2013-03-29 12:02:00,49.6,41.0,30.20,South,186,11.3,15.8,72,0.00,,,0.00,CWS Microserver 1.4,2013-03-29 17:02:00,
2013-03-29 12:07:00,50.0,40.8,30.20,SSW,197,6.3,15.8,70,0.00,,,0.00,CWS Microserver 1.4,2013-03-29 17:07:00,
2013-03-29 12:12:00,50.3,39.9,30.20,South,190,10.1,15.7,67,0.00,,,0.00,CWS Microserver 1.4,2013-03-29 17:12:00,
2013-03-29 12:17:00,50.5,41.3,30.20,SSW,205,14.6,18.4,70,0.00,,,0.00,CWS Microserver 1.4,2013-03-29 17:17:00,
2013-03-29 12:22:00,51.2,41.1,30.20,SSW,198,7.4,18.4,68,0.00,,,0.00,CWS Microserver 1.4,2013-03-29 17:22:00,
2013-03-29 12:27:00,51.2,39.8,30.19,SW,222,7.4,15.9,65,0.00,,,0.00,CWS Microserver 1.4,2013-03-29 17:27:00,
2013-03-29 12:32:00,50.9,39.6,30.19,SSW,198,7.9,17.4,65,0.00,,,0.00,CWS Microserver 1.4,2013-03-29 17:32:00,
2013-03-29 12:37:00,50.7,39.4,30.19,South,180,10.8,19.9,65,0.00,,,0.00,CWS Microserver 1.4,2013-03-29 17:37:00,
2013-03-29 12:42:00,50.9,40.4,30.19,SSW,194,9.9,19.9,67,0.00,,,0.00,CWS Microserver 1.4,2013-03-29 17:42:00,
2013-03-29 12:47:00,50.9,40.1,30.19,SSW,197,9.6,18.7,66,0.00,,,0.00,CWS Microserver 1.4,2013-03-29 17:47:00,
2013-03-29 12:52:00,51.2,39.5,30.18,SSW,195,15.1,18.7,64,0.00,,,0.00,CWS Microserver 1.4,2013-03-29 17:52:00,
2013-03-29 12:57:00,50.9,39.0,30.18,SSW,195,14.3,17.8,63,0.00,,,0.00,CWS Microserver 1.4,2013-03-29 17:57:00,
2013-03-29 13:07:00,51.4,38.5,30.18,South,191,13.4,19.1,61,0.00,,,0.00,CWS Microserver 1.4,2013-03-29 18:07:00,
2013-03-29 13:12:00,51.4,39.8,30.18,SSW,204,4.2,20.0,64,0.00,,,0.00,CWS Microserver 1.4,2013-03-29 18:12:00,
2013-03-29 13:22:00,52.3,39.8,30.18,South,187,12.5,17.7,62,0.00,,,0.00,CWS Microserver 1.4,2013-03-29 18:22:00,
2013-03-29 13:27:00,51.9,39.3,30.18,South,182,16.5,20.0,62,0.00,,,0.00,CWS Microserver 1.4,2013-03-29 18:27:00,
2013-03-29 13:32:00,52.3,39.1,30.18,South,188,11.9,20.0,60,0.00,,,0.00,CWS Microserver 1.4,2013-03-29 18:32:00,
2013-03-29 13:37:00,52.3,39.1,30.17,SSW,199,13.4,19.5,60,0.00,,,0.00,CWS Microserver 1.4,2013-03-29 18:37:00,
2013-03-29 13:42:00,52.8,39.1,30.18,SSW,192,10.6,20.5,59,0.00,,,0.00,CWS Microserver 1.4,2013-03-29 18:42:00,
2013-03-29 13:52:00,53.0,38.5,30.17,South,189,12.3,23.2,57,0.00,,,0.00,CWS Microserver 1.4,2013-03-29 18:52:00,
2013-03-29 13:57:00,52.8,38.4,30.17,South,184,14.0,23.1,57,0.00,,,0.00,CWS Microserver 1.4,2013-03-29 18:57:00,
2013-03-29 14:02:00,53.2,38.5,30.17,SSW,201,17.5,21.4,57,0.00,,,0.00,CWS Microserver 1.4,2013-03-29 19:02:00,
2013-03-29 14:12:00,53.4,39.5,30.16,South,170,11.1,24.0,59,0.00,,,0.00,CWS Microserver 1.4,2013-03-29 19:12:00,
2013-03-29 14:17:00,53.4,38.4,30.16,South,171,17.3,24.0,56,0.00,,,0.00,CWS Microserver 1.4,2013-03-29 19:17:00,
2013-03-29 14:22:00,53.6,37.7,30.16,SSW,202,8.9,23.6,54,0.00,,,0.00,CWS Microserver 1.4,2013-03-29 19:22:00,
2013-03-29 14:27:00,53.4,38.1,30.16,South,189,16.4,23.6,56,0.00,,,0.00,CWS Microserver 1.4,2013-03-29 19:27:00,
2013-03-29 14:37:00,53.2,38.0,30.15,South,191,14.7,22.8,56,0.00,,,0.00,CWS Microserver 1.4,2013-03-29 19:37:00,
2013-03-29 14:42:00,53.9,39.7,30.15,SSW,198,12.7,21.9,58,0.00,,,0.00,CWS Microserver 1.4,2013-03-29 19:42:00,
2013-03-29 14:52:00,53.9,38.5,30.14,South,176,22.6,24.2,55,0.00,,,0.00,CWS Microserver 1.4,2013-03-29 19:52:00,
2013-03-29 14:57:00,53.6,39.2,30.14,South,181,12.5,24.2,58,0.00,,,0.00,CWS Microserver 1.4,2013-03-29 19:57:00,
2013-03-29 15:02:00,53.9,39.0,30.14,South,182,18.9,26.3,57,0.00,,,0.00,CWS Microserver 1.4,2013-03-29 20:02:00,
2013-03-29 15:12:00,54.3,40.0,30.13,South,182,17.7,24.7,58,0.00,,,0.00,CWS Microserver 1.4,2013-03-29 20:12:00,
2013-03-29 15:17:00,54.3,39.2,30.13,South,175,18.9,25.1,56,0.00,,,0.00,CWS Microserver 1.4,2013-03-29 20:17:00,
2013-03-29 15:22:00,54.1,38.4,30.13,SSW,197,12.2,25.1,55,0.00,,,0.00,CWS Microserver 1.4,2013-03-29 20:22:00,
2013-03-29 15:27:00,54.1,40.0,30.13,South,185,13.2,24.7,58,0.00,,,0.00,CWS Microserver 1.4,2013-03-29 20:27:00,
2013-03-29 15:32:00,54.5,39.7,30.13,South,179,15.5,20.8,57,0.00,,,0.00,CWS Microserver 1.4,2013-03-29 20:32:00,
2013-03-29 15:42:00,54.3,38.5,30.12,South,185,16.8,21.9,55,0.00,,,0.00,CWS Microserver 1.4,2013-03-29 20:42:00,
2013-03-29 15:47:00,54.5,37.1,30.12,South,183,17.2,21.9,51,0.00,,,0.00,CWS Microserver 1.4,2013-03-29 20:47:00,
2013-03-29 15:52:00,54.5,38.7,30.12,South,191,13.3,24.0,55,0.00,,,0.00,CWS Microserver 1.4,2013-03-29 20:52:00,
2013-03-29 15:57:00,54.3,38.5,30.12,South,187,15.8,25.7,55,0.00,,,0.00,CWS Microserver 1.4,2013-03-29 20:57:00,
2013-03-29 16:02:00,54.5,40.3,30.12,South,177,10.8,25.7,58,0.00,,,0.00,CWS Microserver 1.4,2013-03-29 21:02:00,
2013-03-29 16:07:00,54.6,38.8,30.12,South,189,12.9,24.2,55,0.00,,,0.00,CWS Microserver 1.4,2013-03-29 21:07:00,
2013-03-29 16:12:00,54.6,39.7,30.12,South,182,17.8,24.4,57,0.00,,,0.00,CWS Microserver 1.4,2013-03-29 21:12:00,
2013-03-29 16:17:00,54.3,39.5,30.11,South,173,20.7,24.4,57,0.00,,,0.00,CWS Microserver 1.4,2013-03-29 21:17:00,
2013-03-29 16:22:00,54.6,39.7,30.11,South,183,13.8,23.2,57,0.00,,,0.00,CWS Microserver 1.4,2013-03-29 21:22:00,
2013-03-29 16:27:00,54.3,39.5,30.11,South,172,15.5,21.2,57,0.00,,,0.00,CWS Microserver 1.4,2013-03-29 21:27:00,
2013-03-29 16:32:00,54.1,38.9,30.11,South,188,11.4,25.9,56,0.00,,,0.00,CWS Microserver 1.4,2013-03-29 21:32:00,
2013-03-29 16:37:00,54.1,40.4,30.11,South,188,12.1,25.9,59,0.00,,,0.00,CWS Microserver 1.4,2013-03-29 21:37:00,
2013-03-29 16:42:00,54.1,39.2,30.11,South,191,15.2,23.6,57,0.00,,,0.00,CWS Microserver 1.4,2013-03-29 21:42:00,
2013-03-29 16:47:00,54.1,39.5,30.11,South,178,16.4,23.6,57,0.00,,,0.00,CWS Microserver 1.4,2013-03-29 21:47:00,
2013-03-29 16:52:00,54.3,40.7,30.11,South,188,10.8,22.1,60,0.00,,,0.00,CWS Microserver 1.4,2013-03-29 21:52:00,
2013-03-29 16:57:00,54.3,39.8,30.10,South,186,13.9,22.4,57,0.00,,,0.00,CWS Microserver 1.4,2013-03-29 21:57:00,
2013-03-29 17:02:00,54.5,39.5,30.10,South,171,19.0,22.4,57,0.00,,,0.00,CWS Microserver 1.4,2013-03-29 22:02:00,
2013-03-29 17:07:00,54.3,39.9,30.10,South,185,14.2,24.4,58,0.00,,,0.00,CWS Microserver 1.4,2013-03-29 22:07:00,
2013-03-29 17:12:00,54.5,39.2,30.10,SSW,204,15.3,24.4,56,0.00,,,0.00,CWS Microserver 1.4,2013-03-29 22:12:00,
2013-03-29 17:17:00,54.5,40.3,30.10,SSW,193,7.4,20.2,58,0.00,,,0.00,CWS Microserver 1.4,2013-03-29 22:17:00,
2013-03-29 17:22:00,54.3,40.8,30.10,South,182,12.4,21.0,60,0.00,,,0.00,CWS Microserver 1.4,2013-03-29 22:22:00,
2013-03-29 17:27:00,54.3,39.2,30.10,South,181,17.9,21.7,56,0.00,,,0.00,CWS Microserver 1.4,2013-03-29 22:27:00,
2013-03-29 17:32:00,54.3,40.2,30.09,South,180,12.3,21.7,58,0.00,,,0.00,CWS Microserver 1.4,2013-03-29 22:32:00,
2013-03-29 17:37:00,54.5,40.0,30.09,South,182,11.7,21.2,58,0.00,,,0.00,CWS Microserver 1.4,2013-03-29 22:37:00,
2013-03-29 17:57:00,53.9,40.0,30.09,South,172,20.3,24.2,59,0.00,,,0.00,CWS Microserver 1.4,2013-03-29 22:57:00,
2013-03-29 18:02:00,53.9,40.0,30.09,South,189,13.4,24.1,59,0.00,,,0.00,CWS Microserver 1.4,2013-03-29 23:02:00,
2013-03-29 18:07:00,53.7,40.2,30.09,SSW,193,13.5,23.7,60,0.00,,,0.00,CWS Microserver 1.4,2013-03-29 23:07:00,
2013-03-29 18:12:00,53.7,40.1,30.09,South,181,15.2,22.6,60,0.00,,,0.00,CWS Microserver 1.4,2013-03-29 23:12:00,
2013-03-29 18:17:00,53.6,39.7,30.08,South,179,16.3,19.5,59,0.00,,,0.00,CWS Microserver 1.4,2013-03-29 23:17:00,
2013-03-29 18:22:00,53.4,40.2,30.09,South,179,14.1,20.1,60,0.00,,,0.00,CWS Microserver 1.4,2013-03-29 23:22:00,
2013-03-29 18:32:00,53.0,40.6,30.08,South,186,8.4,16.3,62,0.00,,,0.00,CWS Microserver 1.4,2013-03-29 23:32:00,
2013-03-29 18:37:00,52.8,40.5,30.08,South,182,10.8,16.3,63,0.00,,,0.00,CWS Microserver 1.4,2013-03-29 23:37:00,
2013-03-29 18:42:00,52.7,40.2,30.08,South,174,10.6,17.4,62,0.00,,,0.00,CWS Microserver 1.4,2013-03-29 23:42:00,
2013-03-29 18:47:00,52.3,40.6,30.08,SSE,163,7.7,17.4,64,0.00,,,0.00,CWS Microserver 1.4,2013-03-29 23:47:00,
2013-03-29 18:52:00,51.9,40.4,30.08,South,178,6.5,16.0,64,0.00,,,0.00,CWS Microserver 1.4,2013-03-29 23:52:00,
2013-03-29 18:57:00,51.6,40.0,30.08,SSW,193,10.6,18.5,64,0.00,,,0.00,CWS Microserver 1.4,2013-03-29 23:57:00,
2013-03-29 19:02:00,51.2,40.5,30.08,South,177,6.8,18.5,66,0.00,,,0.00,CWS Microserver 1.4,2013-03-30 00:02:00,
2013-03-29 19:07:00,51.2,40.3,30.08,South,174,9.7,15.0,66,0.00,,,0.00,CWS Microserver 1.4,2013-03-30 00:07:00,
2013-03-29 19:12:00,50.5,40.2,30.08,South,175,9.2,15.0,67,0.00,,,0.00,CWS Microserver 1.4,2013-03-30 00:12:00,
2013-03-29 19:22:00,50.0,40.3,30.08,SSE,164,9.8,15.1,69,0.00,,,0.00,CWS Microserver 1.4,2013-03-30 00:22:00,
2013-03-29 19:32:00,49.4,40.5,30.07,SSE,167,9.6,14.0,71,0.00,,,0.00,CWS Microserver 1.4,2013-03-30 00:32:00,
2013-03-29 19:42:00,48.9,40.1,30.07,SSE,166,9.6,17.6,71,0.00,,,0.00,CWS Microserver 1.4,2013-03-30 00:42:00,
2013-03-29 19:47:00,48.7,40.0,30.07,SSE,165,10.7,14.4,71,0.00,,,0.00,CWS Microserver 1.4,2013-03-30 00:47:00,
2013-03-29 19:52:00,48.5,39.8,30.07,SSE,156,11.2,15.9,71,0.00,,,0.00,CWS Microserver 1.4,2013-03-30 00:52:00,
2013-03-29 19:57:00,48.3,39.7,30.06,SSE,168,10.8,15.9,72,0.00,,,0.00,CWS Microserver 1.4,2013-03-30 00:57:00,
2013-03-29 20:07:00,48.0,39.4,30.06,South,172,9.0,15.9,72,0.00,,,0.00,CWS Microserver 1.4,2013-03-30 01:07:00,
2013-03-29 20:12:00,47.8,39.3,30.06,SSE,160,12.1,14.9,72,0.00,,,0.00,CWS Microserver 1.4,2013-03-30 01:12:00,
2013-03-29 20:17:00,47.4,39.4,30.06,South,182,10.1,13.9,73,0.00,,,0.00,CWS Microserver 1.4,2013-03-30 01:17:00,
2013-03-29 20:22:00,46.9,39.2,30.06,SSE,162,10.0,13.6,74,0.00,,,0.00,CWS Microserver 1.4,2013-03-30 01:22:00,
2013-03-29 20:27:00,46.2,39.0,30.06,SSE,168,9.4,13.0,75,0.00,,,0.00,CWS Microserver 1.4,2013-03-30 01:27:00,
2013-03-29 20:32:00,46.0,39.2,30.06,SSE,166,9.7,12.4,76,0.00,,,0.00,CWS Microserver 1.4,2013-03-30 01:32:00,
2013-03-29 20:42:00,45.8,38.8,30.06,SSE,162,9.8,13.3,76,0.00,,,0.00,CWS Microserver 1.4,2013-03-30 01:42:00,
2013-03-29 20:47:00,46.0,38.9,30.06,South,173,10.5,13.8,76,0.00,,,0.00,CWS Microserver 1.4,2013-03-30 01:47:00,
2013-03-29 20:57:00,45.1,38.4,30.06,SSE,164,10.0,13.1,77,0.00,,,0.00,CWS Microserver 1.4,2013-03-30 01:57:00,
2013-03-29 21:07:00,44.7,38.4,30.05,SSE,161,12.1,15.3,78,0.00,,,0.00,CWS Microserver 1.4,2013-03-30 02:07:00,
2013-03-29 21:12:00,44.4,38.3,30.05,SSE,163,12.4,15.3,79,0.00,,,0.00,CWS Microserver 1.4,2013-03-30 02:12:00,
2013-03-29 21:17:00,44.4,38.4,30.05,SSE,156,11.6,16.5,79,0.00,,,0.00,CWS Microserver 1.4,2013-03-30 02:17:00,
2013-03-29 21:22:00,44.2,38.3,30.05,SSE,163,11.2,16.5,79,0.00,,,0.00,CWS Microserver 1.4,2013-03-30 02:22:00,
2013-03-29 21:27:00,43.8,37.9,30.05,SSE,166,9.3,14.0,79,0.00,,,0.00,CWS Microserver 1.4,2013-03-30 02:27:00,
2013-03-29 21:32:00,43.8,38.1,30.05,SSE,162,10.2,14.0,80,0.00,,,0.00,CWS Microserver 1.4,2013-03-30 02:32:00,
2013-03-29 21:42:00,43.3,37.9,30.05,SSE,160,10.4,13.5,81,0.00,,,0.00,CWS Microserver 1.4,2013-03-30 02:42:00,
2013-03-29 21:52:00,42.8,37.4,30.04,SSE,160,9.1,13.9,81,0.00,,,0.00,CWS Microserver 1.4,2013-03-30 02:52:00,
2013-03-29 22:02:00,42.9,37.2,30.04,SSE,160,10.8,14.6,80,0.00,,,0.00,CWS Microserver 1.4,2013-03-30 03:02:00,
2013-03-29 22:07:00,43.1,37.1,30.04,SSE,165,10.5,14.6,79,0.00,,,0.00,CWS Microserver 1.4,2013-03-30 03:07:00,
2013-03-29 22:12:00,43.3,37.0,30.04,SSE,160,13.0,16.3,78,0.00,,,0.00,CWS Microserver 1.4,2013-03-30 03:12:00,
2013-03-29 22:17:00,43.7,37.0,30.04,SSE,158,11.1,16.3,77,0.00,,,0.00,CWS Microserver 1.4,2013-03-30 03:17:00,
2013-03-29 22:22:00,43.5,36.6,30.04,SSE,159,11.5,15.3,76,0.00,,,0.00,CWS Microserver 1.4,2013-03-30 03:22:00,
2013-03-29 22:27:00,43.7,36.6,30.04,SSE,165,9.4,16.0,75,0.00,,,0.00,CWS Microserver 1.4,2013-03-30 03:27:00,
2013-03-29 22:32:00,43.5,36.4,30.04,SSE,165,12.4,16.0,75,0.00,,,0.00,CWS Microserver 1.4,2013-03-30 03:32:00,
2013-03-29 22:42:00,43.5,36.3,30.04,SSE,162,11.0,16.9,75,0.00,,,0.00,CWS Microserver 1.4,2013-03-30 03:42:00,
2013-03-29 22:47:00,43.3,36.1,30.04,SSE,163,10.4,16.1,75,0.00,,,0.00,CWS Microserver 1.4,2013-03-30 03:47:00,
2013-03-29 22:52:00,43.5,36.3,30.04,SSE,163,6.7,15.6,75,0.00,,,0.00,CWS Microserver 1.4,2013-03-30 03:52:00,
2013-03-29 22:57:00,43.3,36.1,30.04,SSE,168,7.9,15.5,75,0.00,,,0.00,CWS Microserver 1.4,2013-03-30 03:57:00,
2013-03-29 23:02:00,42.9,36.0,30.04,South,186,11.4,14.3,76,0.00,,,0.00,CWS Microserver 1.4,2013-03-30 04:02:00,
2013-03-29 23:07:00,42.8,35.9,30.03,SSE,165,7.0,13.6,76,0.00,,,0.00,CWS Microserver 1.4,2013-03-30 04:07:00,
2013-03-29 23:17:00,42.8,35.8,30.03,South,170,8.0,13.5,76,0.00,,,0.00,CWS Microserver 1.4,2013-03-30 04:17:00,
2013-03-29 23:22:00,42.9,35.8,30.03,South,177,9.9,13.7,75,0.00,,,0.00,CWS Microserver 1.4,2013-03-30 04:22:00,
2013-03-29 23:27:00,42.9,35.7,30.03,South,170,10.4,14.6,75,0.00,,,0.00,CWS Microserver 1.4,2013-03-30 04:27:00,
2013-03-29 23:32:00,42.9,35.6,30.03,South,171,12.9,14.6,75,0.00,,,0.00,CWS Microserver 1.4,2013-03-30 04:32:00,
2013-03-29 23:42:00,43.5,35.6,30.02,South,176,15.2,16.8,73,0.00,,,0.00,CWS Microserver 1.4,2013-03-30 04:42:00,
2013-03-29 23:47:00,43.7,35.6,30.02,South,170,10.1,16.8,72,0.00,,,0.00,CWS Microserver 1.4,2013-03-30 04:47:00,
2013-03-29 23:52:00,43.8,35.5,30.02,South,180,11.7,16.8,72,0.00,,,0.00,CWS Microserver 1.4,2013-03-30 04:52:00,
2013-03-29 23:57:00,44.0,35.5,30.01,South,172,8.8,18.4,72,0.00,,,0.00,CWS Microserver 1.4,2013-03-30 04:57:00,